createdAt,value
2022-12-22T00:02:45.726Z,11.82
2022-12-22T00:05:40.514Z,13.55
2022-12-22T00:08:26.611Z,10.15
2022-12-22T00:11:13.926Z,10.15
2022-12-22T00:14:02.172Z,8.18
2022-12-22T00:16:53.688Z,8.63
2022-12-22T00:19:39.987Z,11.05
2022-12-22T00:22:40.926Z,10.52
2022-12-22T00:25:31.156Z,10.18
2022-12-22T00:28:17.468Z,7.43
2022-12-22T00:31:04.128Z,6.45
2022-12-22T00:33:49.879Z,9.90
2022-12-22T00:36:36.999Z,11.40
2022-12-22T00:39:30.837Z,11.00
2022-12-22T00:42:16.856Z,11.90
2022-12-22T00:45:02.524Z,9.55
2022-12-22T00:47:50.018Z,9.23
2022-12-22T00:50:36.148Z,10.15
2022-12-22T00:53:22.928Z,11.90
2022-12-22T00:56:09.030Z,8.48
2022-12-22T00:58:55.400Z,11.40
2022-12-22T01:01:41.115Z,8.63
2022-12-22T01:04:29.962Z,9.25
2022-12-22T01:07:16.774Z,9.25
2022-12-22T01:10:08.393Z,8.27
2022-12-22T01:12:55.941Z,10.40
2022-12-22T01:15:42.369Z,7.93
2022-12-22T01:18:27.972Z,11.23
2022-12-22T01:21:14.347Z,10.23
2022-12-22T01:24:00.478Z,9.43
2022-12-22T01:26:46.661Z,11.00
2022-12-22T01:29:32.609Z,9.82
2022-12-22T01:32:19.217Z,9.35
2022-12-22T01:35:04.862Z,6.30
2022-12-22T01:37:50.732Z,10.32
2022-12-22T01:40:42.624Z,10.30
2022-12-22T01:43:45.641Z,9.25
2022-12-22T01:46:54.253Z,8.35
2022-12-22T01:49:48.697Z,10.57
2022-12-22T01:52:36.863Z,7.27
2022-12-22T01:55:28.883Z,7.55
2022-12-22T01:58:15.051Z,7.00
2022-12-22T02:01:01.879Z,8.20
2022-12-22T02:03:47.911Z,10.05
2022-12-22T02:06:46.232Z,9.32
2022-12-22T02:09:31.822Z,9.98
2022-12-22T02:12:38.193Z,7.95
2022-12-22T02:15:37.731Z,8.90
2022-12-22T02:18:35.165Z,10.15
2022-12-22T02:21:26.836Z,5.82
2022-12-22T02:24:30.449Z,7.18
2022-12-22T02:27:18.896Z,4.38
2022-12-22T02:30:11.452Z,5.72
2022-12-22T02:33:05.198Z,6.78
2022-12-22T02:36:13.766Z,7.82
2022-12-22T02:39:21.167Z,10.20
2022-12-22T02:42:34.919Z,6.55
2022-12-22T02:45:26.104Z,8.05
2022-12-22T02:48:24.058Z,8.25
2022-12-22T02:51:21.515Z,8.07
2022-12-22T02:54:09.725Z,5.78
2022-12-22T02:56:56.527Z,8.77
2022-12-22T02:59:42.160Z,7.50
2022-12-22T03:02:28.093Z,7.30
2022-12-22T03:05:14.039Z,6.45
2022-12-22T03:08:03.114Z,10.93
2022-12-22T03:10:53.523Z,10.02
2022-12-22T03:13:39.305Z,8.60
2022-12-22T03:16:24.999Z,10.95
2022-12-22T03:19:11.003Z,6.93
2022-12-22T03:21:56.673Z,8.32
2022-12-22T03:24:42.319Z,10.35
2022-12-22T03:27:09.662Z,8.85
2022-12-22T03:29:36.946Z,9.68
2022-12-22T03:32:04.387Z,10.20
2022-12-22T03:34:31.647Z,6.43
2022-12-22T03:36:58.834Z,6.43
2022-12-22T03:39:26.193Z,7.45
2022-12-22T03:42:11.678Z,9.52
2022-12-22T03:44:57.486Z,8.13
2022-12-22T03:47:24.682Z,10.50
2022-12-22T03:49:51.980Z,12.30
2022-12-22T03:52:19.258Z,8.98
2022-12-22T03:54:46.453Z,10.20
2022-12-22T03:57:13.692Z,15.20
2022-12-22T03:59:40.957Z,15.43
2022-12-22T04:02:08.414Z,12.98
2022-12-22T04:04:35.818Z,13.38
2022-12-22T04:07:03.085Z,8.98
2022-12-22T04:09:30.397Z,17.98
2022-12-22T04:12:16.234Z,13.80
2022-12-22T04:14:43.436Z,10.20
2022-12-22T04:17:10.795Z,20.00
2022-12-22T04:19:38.017Z,18.35
2022-12-22T04:22:05.356Z,17.15
2022-12-22T04:24:32.553Z,9.25
2022-12-22T04:26:59.973Z,18.38
2022-12-22T04:29:27.155Z,12.40
2022-12-22T04:31:54.436Z,15.57
2022-12-22T04:34:21.639Z,14.85
2022-12-22T04:36:48.824Z,14.90
2022-12-22T04:39:16.025Z,13.75
2022-12-22T04:41:43.249Z,10.35
2022-12-22T04:44:10.500Z,18.70
2022-12-22T04:46:37.737Z,19.60
2022-12-22T04:49:05.326Z,17.15
2022-12-22T04:51:32.565Z,14.95
2022-12-22T04:53:59.760Z,16.52
2022-12-22T04:56:26.932Z,14.18
2022-12-22T04:58:54.146Z,13.90
2022-12-22T05:01:21.554Z,17.27
2022-12-22T05:03:48.939Z,13.38
2022-12-22T05:06:16.698Z,11.85
2022-12-22T05:08:43.961Z,14.48
2022-12-22T05:11:11.608Z,23.70
2022-12-22T05:13:38.870Z,15.05
2022-12-22T05:16:08.394Z,13.27
2022-12-22T05:18:36.645Z,14.57
2022-12-22T05:21:11.007Z,11.23
2022-12-22T05:23:38.597Z,10.80
2022-12-22T05:26:06.334Z,15.27
2022-12-22T05:28:33.556Z,17.20
2022-12-22T05:31:06.177Z,10.73
2022-12-22T05:33:33.981Z,7.13
2022-12-22T05:36:01.806Z,11.13
2022-12-22T05:38:29.355Z,8.85
2022-12-22T05:41:01.721Z,8.02
2022-12-22T05:43:30.824Z,7.82
2022-12-22T05:45:58.825Z,8.18
2022-12-22T05:48:30.882Z,5.13
2022-12-22T05:51:01.210Z,6.03
2022-12-22T05:53:28.899Z,5.95
2022-12-22T05:55:56.300Z,5.25
2022-12-22T05:58:23.599Z,7.05
2022-12-22T06:00:50.951Z,6.05
2022-12-22T06:03:18.363Z,5.57
2022-12-22T06:05:45.711Z,6.28
2022-12-22T06:08:13.033Z,10.48
2022-12-22T06:10:40.288Z,6.45
2022-12-22T06:13:07.569Z,5.95
2022-12-22T06:15:34.904Z,8.07
2022-12-22T06:18:02.346Z,7.75
2022-12-22T06:20:29.620Z,6.82
2022-12-22T06:22:56.897Z,6.50
2022-12-22T06:25:24.189Z,9.52
2022-12-22T06:27:51.435Z,7.13
2022-12-22T06:30:18.778Z,5.53
2022-12-22T06:32:46.063Z,6.90
2022-12-22T06:35:13.489Z,6.53
2022-12-22T06:37:41.040Z,5.97
2022-12-22T06:40:09.301Z,5.93
2022-12-22T06:42:55.156Z,7.63
2022-12-22T06:45:22.445Z,7.25
2022-12-22T06:47:49.778Z,3.45
2022-12-22T06:50:17.232Z,3.78
2022-12-22T06:52:44.871Z,3.78
2022-12-22T06:55:12.633Z,3.13
2022-12-22T06:57:39.886Z,1.92
2022-12-22T07:00:07.859Z,3.63
2022-12-22T07:02:35.497Z,4.40
2022-12-22T07:05:03.655Z,1.63
2022-12-22T07:07:31.057Z,3.88
2022-12-22T07:09:58.313Z,4.50
2022-12-22T07:12:25.718Z,3.53
2022-12-22T07:14:53.135Z,3.45
2022-12-22T07:17:20.489Z,2.75
2022-12-22T07:19:47.714Z,3.45
2022-12-22T07:22:15.048Z,4.13
2022-12-22T07:24:42.284Z,4.03
2022-12-22T07:27:09.874Z,3.60
2022-12-22T07:29:37.215Z,12.20
2022-12-22T07:32:05.024Z,3.33
2022-12-22T07:34:32.438Z,2.85
2022-12-22T07:36:59.752Z,3.45
2022-12-22T07:39:27.091Z,4.45
2022-12-22T07:42:12.927Z,7.50
2022-12-22T07:44:40.131Z,2.47
2022-12-22T07:47:07.726Z,3.42
2022-12-22T07:49:53.478Z,3.95
2022-12-22T07:52:20.783Z,3.17
2022-12-22T07:54:48.047Z,4.00
2022-12-22T07:57:15.362Z,6.78
2022-12-22T07:59:42.564Z,2.88
2022-12-22T08:02:12.444Z,2.65
2022-12-22T08:04:39.914Z,6.75
2022-12-22T08:07:07.357Z,2.50
2022-12-22T08:09:34.626Z,6.22
2022-12-22T08:12:01.927Z,3.17
2022-12-22T08:14:29.127Z,3.28
2022-12-22T08:16:56.468Z,3.83
2022-12-22T08:19:24.576Z,3.45
2022-12-22T08:21:53.180Z,2.25
2022-12-22T08:24:21.700Z,1.98
2022-12-22T08:26:53.269Z,2.33
2022-12-22T08:29:31.537Z,3.67
2022-12-22T08:32:00.210Z,2.42
2022-12-22T08:34:27.786Z,2.75
2022-12-22T08:36:58.082Z,2.17
2022-12-22T08:39:29.136Z,2.60
2022-12-22T08:41:56.499Z,4.47
2022-12-22T08:44:26.317Z,4.03
2022-12-22T08:46:55.831Z,3.53
2022-12-22T08:49:23.376Z,4.45
2022-12-22T08:51:51.616Z,3.60
2022-12-22T08:54:19.573Z,3.17
2022-12-22T08:56:47.606Z,1.98
2022-12-22T08:59:15.508Z,2.22
2022-12-22T09:01:50.715Z,3.35
2022-12-22T09:04:20.424Z,2.63
2022-12-22T09:06:47.932Z,3.00
2022-12-22T09:09:16.680Z,3.83
2022-12-22T09:11:44.117Z,2.95
2022-12-22T09:14:12.633Z,4.13
2022-12-22T09:16:40.520Z,4.60
2022-12-22T09:19:08.648Z,4.13
2022-12-22T09:21:36.784Z,4.03
2022-12-22T09:24:07.827Z,3.67
2022-12-22T09:26:35.226Z,1.80
2022-12-22T09:29:02.469Z,0.70
2022-12-22T09:31:29.973Z,1.27
2022-12-22T09:33:58.786Z,0.88
2022-12-22T09:36:28.971Z,0.40
2022-12-22T09:38:56.237Z,1.85
2022-12-22T09:41:31.871Z,0.70
2022-12-22T09:44:05.257Z,2.05
2022-12-22T09:46:36.011Z,2.72
2022-12-22T09:49:08.426Z,1.05
2022-12-22T09:51:42.933Z,1.50
2022-12-22T09:56:38.703Z,2.35
2022-12-22T09:59:14.798Z,4.50
2022-12-22T10:02:01.520Z,1.13
2022-12-22T10:04:50.396Z,2.05
2022-12-22T10:07:29.789Z,3.50
2022-12-22T10:09:57.010Z,3.88
2022-12-22T10:12:26.089Z,4.30
2022-12-22T10:14:54.312Z,6.22
2022-12-22T10:17:32.313Z,5.93
2022-12-22T10:20:21.922Z,3.63
2022-12-22T10:22:54.657Z,8.35
2022-12-22T10:25:25.315Z,3.00
2022-12-22T10:27:55.047Z,5.82
2022-12-22T10:30:30.293Z,4.18
2022-12-22T10:33:04.788Z,6.32
2022-12-22T10:35:57.691Z,5.63
2022-12-22T10:38:34.496Z,3.70
2022-12-22T10:41:16.607Z,5.80
2022-12-22T10:44:02.311Z,7.70
2022-12-22T10:46:32.192Z,7.20
2022-12-22T10:49:13.013Z,14.38
2022-12-22T10:51:42.970Z,11.18
2022-12-22T10:54:23.456Z,16.45
2022-12-22T10:57:25.287Z,19.30
2022-12-22T10:59:58.287Z,9.00
2022-12-22T11:02:39.798Z,15.52
2022-12-22T11:05:11.853Z,22.42
2022-12-22T11:07:41.261Z,24.58
2022-12-22T11:10:22.475Z,22.20
2022-12-22T11:13:11.140Z,17.73
2022-12-22T11:15:38.338Z,15.07
2022-12-22T11:18:40.798Z,12.55
2022-12-22T11:21:49.244Z,20.33
2022-12-22T11:24:25.592Z,15.38
2022-12-22T11:27:01.793Z,15.73
2022-12-22T11:29:54.373Z,17.05
2022-12-22T11:32:24.473Z,14.15
2022-12-22T11:35:14.556Z,22.20
2022-12-22T11:38:01.452Z,12.52
2022-12-22T11:40:48.372Z,17.83
2022-12-22T11:43:18.736Z,15.80
2022-12-22T11:45:54.877Z,22.95
2022-12-22T11:48:24.900Z,21.08
2022-12-22T11:51:01.542Z,15.70
2022-12-22T11:54:08.680Z,17.48
2022-12-22T11:56:52.119Z,11.15
2022-12-22T11:59:37.913Z,18.65
2022-12-22T12:02:35.931Z,9.30
2022-12-22T12:05:34.419Z,24.48
2022-12-22T12:08:12.451Z,11.55
2022-12-22T12:10:52.099Z,8.77
2022-12-22T12:13:28.675Z,11.00
2022-12-22T12:16:20.146Z,9.52
2022-12-22T12:19:07.579Z,14.25
2022-12-22T12:21:54.676Z,19.73
2022-12-22T12:24:51.509Z,13.65
2022-12-22T12:28:03.789Z,16.52
2022-12-22T12:30:41.433Z,13.85
2022-12-22T12:33:38.925Z,11.82
2022-12-22T12:36:21.541Z,5.88
2022-12-22T12:39:21.499Z,17.13
2022-12-22T12:41:56.420Z,12.63
2022-12-22T12:44:27.797Z,10.27
2022-12-22T12:47:04.992Z,9.02
2022-12-22T12:49:35.323Z,10.35
2022-12-22T12:52:04.442Z,9.07
2022-12-22T12:54:36.675Z,13.05
2022-12-22T12:57:27.476Z,9.82
2022-12-22T12:59:57.922Z,17.05
2022-12-22T13:02:28.789Z,12.80
2022-12-22T13:05:08.172Z,12.65
2022-12-22T13:08:17.170Z,18.70
2022-12-22T13:10:49.377Z,16.23
2022-12-22T13:13:38.968Z,15.10
2022-12-22T13:16:06.193Z,16.45
2022-12-22T13:18:33.421Z,11.70
2022-12-22T13:24:23.469Z,17.60
2022-12-22T13:26:44.495Z,16.20
2022-12-22T13:29:26.962Z,9.00
2022-12-22T13:32:14.916Z,19.10
2022-12-22T13:37:46.848Z,19.38
2022-12-22T13:40:20.694Z,17.73
2022-12-22T13:42:57.507Z,23.08
2022-12-22T13:45:53.807Z,21.08
2022-12-22T13:48:31.195Z,24.60
2022-12-22T13:51:04.013Z,18.42
2022-12-22T13:56:40.010Z,17.95
2022-12-22T13:59:26.296Z,13.63
2022-12-22T14:02:00.291Z,17.52
2022-12-22T14:04:29.671Z,12.75
2022-12-22T14:06:57.060Z,19.45
2022-12-22T14:09:28.169Z,12.32
2022-12-22T14:11:57.163Z,11.45
2022-12-22T14:14:26.233Z,15.90
2022-12-22T14:16:57.188Z,12.05
2022-12-22T14:19:25.731Z,14.20
2022-12-22T14:22:04.537Z,12.77
2022-12-22T14:24:38.726Z,16.23
2022-12-22T14:27:12.533Z,20.00
2022-12-22T14:29:39.903Z,18.53
2022-12-22T14:32:08.987Z,17.38
2022-12-22T14:34:36.266Z,17.23
2022-12-22T14:37:03.511Z,17.92
2022-12-22T14:39:34.799Z,22.92
2022-12-22T14:42:04.332Z,15.35
2022-12-22T14:44:37.800Z,16.48
2022-12-22T14:47:20.487Z,14.00
2022-12-22T14:50:14.130Z,21.17
2022-12-22T14:52:51.216Z,17.35
2022-12-22T14:55:40.850Z,13.80
2022-12-22T14:58:13.692Z,18.63
2022-12-22T15:00:43.659Z,18.52
2022-12-22T15:03:29.538Z,14.77
2022-12-22T15:05:56.955Z,17.17
2022-12-22T15:08:41.201Z,12.95
2022-12-22T15:11:20.129Z,15.48
2022-12-22T15:13:49.246Z,14.52
2022-12-22T15:16:20.079Z,12.25
2022-12-22T15:18:48.504Z,8.55
2022-12-22T15:21:17.629Z,8.40
2022-12-22T15:23:45.103Z,12.60
2022-12-22T15:26:12.462Z,12.55
2022-12-22T15:28:39.720Z,10.88
2022-12-22T15:31:17.363Z,8.70
2022-12-22T15:33:45.612Z,9.65
2022-12-22T15:36:14.154Z,11.00
2022-12-22T15:38:41.820Z,8.38
2022-12-22T15:41:09.001Z,7.90
2022-12-22T15:46:24.829Z,25.80
2022-12-22T15:48:52.610Z,14.82
2022-12-22T15:51:29.657Z,15.88
2022-12-22T15:53:58.641Z,14.85
2022-12-22T15:56:30.282Z,12.25
2022-12-22T15:58:57.836Z,11.98
2022-12-22T16:01:25.145Z,13.02
2022-12-22T16:03:52.622Z,11.35
2022-12-22T16:06:20.197Z,16.40
2022-12-22T16:08:53.208Z,14.77
2022-12-22T16:11:20.772Z,17.05
2022-12-22T16:13:50.284Z,22.55
2022-12-22T16:16:17.889Z,20.98
2022-12-22T16:18:45.089Z,17.88
2022-12-22T16:21:17.096Z,20.02
2022-12-22T16:23:47.755Z,22.15
2022-12-22T16:26:18.561Z,22.65
2022-12-22T16:28:45.923Z,14.30
2022-12-22T16:31:18.998Z,23.73
2022-12-22T16:33:46.368Z,20.40
2022-12-22T16:36:14.363Z,21.20
2022-12-22T16:38:41.617Z,20.58
2022-12-22T16:41:20.448Z,28.10
2022-12-22T16:43:49.577Z,23.95
2022-12-22T16:46:19.953Z,29.70
2022-12-22T16:48:51.512Z,39.15
2022-12-22T16:51:23.947Z,26.63
2022-12-22T16:53:51.553Z,30.27
2022-12-22T16:56:26.830Z,30.00
2022-12-22T16:58:54.100Z,25.00
2022-12-22T17:01:41.760Z,29.27
2022-12-22T17:04:31.938Z,21.10
2022-12-22T17:07:01.019Z,37.95
2022-12-22T17:09:41.244Z,30.63
2022-12-22T17:12:15.469Z,39.78
2022-12-22T17:14:42.771Z,31.88
2022-12-22T17:17:18.945Z,38.92
2022-12-22T17:19:46.162Z,27.05
2022-12-22T17:22:24.932Z,29.63
2022-12-22T17:24:54.306Z,40.20
2022-12-22T17:27:28.950Z,35.95
2022-12-22T17:32:23.903Z,29.50
2022-12-22T17:34:51.185Z,33.70
2022-12-22T17:37:22.124Z,29.73
2022-12-22T17:39:57.497Z,33.25
2022-12-22T17:42:24.987Z,33.75
2022-12-22T17:44:52.750Z,41.42
2022-12-22T17:47:29.085Z,30.13
2022-12-22T17:49:58.746Z,33.08
2022-12-22T17:52:28.169Z,38.90
2022-12-22T17:54:55.915Z,37.67
2022-12-22T17:57:29.927Z,43.25
2022-12-22T17:59:57.216Z,34.50
2022-12-22T18:02:25.966Z,37.63
2022-12-22T18:04:53.498Z,28.65
2022-12-22T18:07:23.258Z,31.85
2022-12-22T18:09:53.768Z,28.58
2022-12-22T18:12:23.246Z,34.20
2022-12-22T18:14:51.321Z,37.08
2022-12-22T18:17:28.610Z,25.80
2022-12-22T18:20:00.486Z,31.15
2022-12-22T18:22:30.011Z,36.78
2022-12-22T18:24:57.897Z,39.92
2022-12-22T18:27:25.415Z,46.78
2022-12-22T18:29:52.754Z,30.98
2022-12-22T18:32:27.130Z,36.92
2022-12-22T18:34:54.939Z,28.35
2022-12-22T18:37:22.217Z,35.75
2022-12-22T18:39:50.672Z,35.75
2022-12-22T18:42:21.477Z,27.13
2022-12-22T18:44:49.746Z,31.73
2022-12-22T18:47:17.696Z,46.00
2022-12-22T18:49:45.462Z,38.90
2022-12-22T18:52:18.652Z,42.33
2022-12-22T18:54:46.573Z,33.03
2022-12-22T18:57:17.391Z,30.27
2022-12-22T18:59:46.196Z,21.08
2022-12-22T19:02:22.996Z,24.63
2022-12-22T19:04:51.062Z,20.27
2022-12-22T19:07:21.584Z,25.83
2022-12-22T19:09:49.364Z,34.63
2022-12-22T19:12:19.587Z,29.95
2022-12-22T19:15:02.920Z,28.30
2022-12-22T19:17:30.418Z,35.97
2022-12-22T19:19:58.117Z,29.40
2022-12-22T19:22:25.657Z,29.77
2022-12-22T19:24:57.498Z,29.02
2022-12-22T19:27:27.220Z,26.90
2022-12-22T19:30:03.531Z,35.25
2022-12-22T19:32:39.376Z,27.38
2022-12-22T19:35:18.364Z,42.25
2022-12-22T19:37:50.574Z,31.63
2022-12-22T19:40:20.070Z,28.70
2022-12-22T19:42:53.746Z,26.88
2022-12-22T19:45:27.438Z,32.87
2022-12-22T19:47:56.875Z,23.03
2022-12-22T19:50:27.977Z,22.45
2022-12-22T19:52:56.271Z,25.10
2022-12-22T19:55:25.012Z,27.52
2022-12-22T19:57:52.563Z,36.35
2022-12-22T20:00:25.706Z,25.80
2022-12-22T20:02:55.945Z,24.10
2022-12-22T20:05:23.277Z,21.83
2022-12-22T20:07:51.922Z,17.23
2022-12-22T20:10:20.690Z,25.40
2022-12-22T20:12:51.202Z,20.73
2022-12-22T20:15:43.396Z,24.33
2022-12-22T20:18:23.003Z,13.32
2022-12-22T20:21:12.786Z,22.80
2022-12-22T20:23:41.000Z,17.25
2022-12-22T20:26:15.043Z,12.07
2022-12-22T20:28:42.338Z,18.10
2022-12-22T20:31:12.824Z,13.00
2022-12-22T20:33:40.208Z,21.92
2022-12-22T20:36:21.708Z,12.75
2022-12-22T20:38:52.340Z,14.88
2022-12-22T20:41:20.641Z,19.40
2022-12-22T20:43:48.859Z,16.80
2022-12-22T20:46:17.995Z,16.48
2022-12-22T20:48:49.328Z,15.93
2022-12-22T20:51:19.902Z,12.32
2022-12-22T20:53:48.280Z,13.82
2022-12-22T20:56:31.397Z,6.70
2022-12-22T20:59:00.979Z,7.20
2022-12-22T21:01:28.778Z,12.23
2022-12-22T21:03:56.083Z,9.18
2022-12-22T21:06:30.120Z,5.72
2022-12-22T21:08:59.437Z,7.10
2022-12-22T21:11:28.337Z,13.02
2022-12-22T21:13:57.650Z,6.00
2022-12-22T21:16:27.726Z,7.18
2022-12-22T21:18:55.490Z,7.10
2022-12-22T21:21:22.949Z,5.07
2022-12-22T21:23:50.207Z,2.15
2022-12-22T21:26:31.690Z,3.03
2022-12-22T21:29:04.857Z,4.25
2022-12-22T21:31:32.272Z,3.78
2022-12-22T21:33:59.625Z,2.15
2022-12-22T21:36:34.073Z,1.77
2022-12-22T21:39:05.750Z,4.60
2022-12-22T21:41:51.337Z,4.03
2022-12-22T21:44:18.697Z,3.63
2022-12-22T21:46:46.956Z,5.75
2022-12-22T21:49:25.966Z,0.93
2022-12-22T21:51:53.939Z,2.10
2022-12-22T21:54:23.047Z,3.83
2022-12-22T21:56:51.934Z,7.25
2022-12-22T21:59:19.218Z,3.33
2022-12-22T22:01:46.795Z,4.90
2022-12-22T22:04:14.329Z,3.47
2022-12-22T22:06:41.648Z,2.33
2022-12-22T22:09:09.103Z,2.03
2022-12-22T22:11:58.997Z,0.60
2022-12-22T22:14:27.054Z,3.05
2022-12-22T22:16:54.648Z,1.48
2022-12-22T22:19:21.885Z,3.13
2022-12-22T22:21:49.220Z,1.17
2022-12-22T22:24:16.571Z,1.50
2022-12-22T22:26:49.299Z,1.42
2022-12-22T22:29:16.584Z,2.92
2022-12-22T22:31:44.048Z,2.47
2022-12-22T22:34:11.379Z,0.40
2022-12-22T22:36:38.811Z,2.38
2022-12-22T22:39:06.047Z,0.60
2022-12-22T22:41:39.274Z,1.33
2022-12-22T22:44:10.085Z,1.10
2022-12-22T22:46:37.442Z,2.90
2022-12-22T22:49:04.750Z,3.78
2022-12-22T22:51:32.114Z,1.15
2022-12-22T22:53:59.385Z,2.17
2022-12-22T22:56:26.616Z,1.75
2022-12-22T22:58:53.806Z,1.55
2022-12-22T23:01:21.132Z,1.95
2022-12-22T23:03:48.396Z,3.53
2022-12-22T23:06:15.842Z,1.17
2022-12-22T23:08:43.021Z,1.45
2022-12-22T23:11:15.009Z,0.75
2022-12-22T23:13:43.039Z,0.50
2022-12-22T23:16:10.508Z,0.75
2022-12-22T23:18:38.140Z,0.95
2022-12-22T23:21:07.441Z,1.70
2022-12-22T23:23:35.770Z,0.68
2022-12-22T23:26:03.237Z,0.60
2022-12-22T23:28:30.635Z,2.55
2022-12-22T23:30:57.995Z,1.30
2022-12-22T23:33:25.648Z,1.77
2022-12-22T23:35:53.578Z,0.52
2022-12-22T23:38:21.496Z,0.45
2022-12-22T23:40:54.183Z,0.45
2022-12-22T23:43:22.623Z,0.82
2022-12-22T23:45:49.912Z,1.40
2022-12-22T23:48:17.151Z,0.77
2022-12-22T23:50:48.099Z,0.50
2022-12-22T23:53:16.265Z,1.38
2022-12-22T23:55:50.150Z,1.65
2022-12-22T23:58:17.658Z,0.65
